Time;durP1;ratioP1;P1;durP2;ratioP2;P2;SDS_P1;SDS_P2;PMS_P1;PMS_P2;Temp;Humidity;BMP_temperature;BMP_pressure;BME280_temperature;BME280_humidity;BME280_pressure;Samples;Min_cycle;Max_cycle;Signal;HPM_P1;HPM_P2
2022/02/24 00:01:04;;;;;;;1.88;0.32;;;5.70;87.80;;;;;;4994170;28;20058;-72
2022/02/24 00:03:34;;;;;;;1.08;0.30;;;5.70;87.90;;;;;;4994297;28;20053;-72
2022/02/24 00:06:02;;;;;;;1.05;0.15;;;5.60;87.90;;;;;;4993791;28;20491;-72
2022/02/24 00:08:30;;;;;;;0.52;0.10;;;5.60;88.00;;;;;;4993666;28;20050;-72
2022/02/24 00:10:58;;;;;;;0.55;0.10;;;5.60;88.20;;;;;;4993390;28;20057;-72
2022/02/24 00:13:25;;;;;;;1.67;0.20;;;5.50;88.20;;;;;;4992048;28;20050;-72
2022/02/24 00:15:53;;;;;;;2.45;0.40;;;5.50;88.20;;;;;;4993697;28;20070;-72
2022/02/24 00:18:20;;;;;;;3.78;0.45;;;5.50;88.20;;;;;;4993337;28;20054;-72
2022/02/24 00:20:48;;;;;;;1.67;0.35;;;5.50;88.20;;;;;;4991632;28;20077;-72
2022/02/24 00:23:15;;;;;;;2.13;0.20;;;5.50;88.30;;;;;;4993120;28;20054;-72
2022/02/24 00:25:43;;;;;;;1.70;0.40;;;5.40;88.50;;;;;;5025755;28;20050;-72
2022/02/24 00:28:11;;;;;;;2.08;0.30;;;5.40;88.70;;;;;;4994105;28;20057;-72
2022/02/24 00:30:38;;;;;;;1.65;0.20;;;5.30;88.70;;;;;;4993745;28;20052;-72
2022/02/24 00:33:09;;;;;;;1.42;0.30;;;5.40;88.80;;;;;;4993530;28;20050;-72
2022/02/24 00:35:37;;;;;;;1.70;0.20;;;5.30;88.70;;;;;;4993657;28;20054;-72
2022/02/24 00:38:04;;;;;;;1.02;0.40;;;5.30;88.70;;;;;;4994549;28;20496;-71
2022/02/24 00:40:32;;;;;;;0.65;0.28;;;5.30;88.60;;;;;;4994596;28;20062;-72
2022/02/24 00:43:00;;;;;;;2.30;0.22;;;5.30;88.60;;;;;;5009640;28;20042;-72
2022/02/24 00:45:27;;;;;;;1.90;0.30;;;5.30;88.60;;;;;;4993878;28;20057;-72
2022/02/24 00:47:55;;;;;;;1.23;0.38;;;5.30;88.70;;;;;;4993280;28;20050;-72
2022/02/24 00:50:22;;;;;;;1.88;0.20;;;5.30;88.70;;;;;;4992926;28;20054;-72
2022/02/24 00:52:50;;;;;;;2.50;0.45;;;5.30;88.70;;;;;;4993222;28;20046;-72
2022/02/24 00:55:18;;;;;;;1.83;0.20;;;5.20;88.80;;;;;;4993085;28;20064;-72
2022/02/24 00:57:45;;;;;;;1.17;0.13;;;5.20;88.80;;;;;;4994408;28;20492;-72
2022/02/24 01:00:15;;;;;;;0.80;0.15;;;5.20;88.80;;;;;;4992986;28;20416;-72
2022/02/24 01:02:43;;;;;;;1.48;0.30;;;5.20;88.80;;;;;;4994346;28;20369;-72
2022/02/24 01:05:11;;;;;;;1.17;0.22;;;5.20;88.80;;;;;;4992994;28;20146;-72
2022/02/24 01:07:38;;;;;;;1.17;0.30;;;5.10;88.90;;;;;;4994313;28;20046;-72
2022/02/24 01:10:07;;;;;;;0.32;0.10;;;5.10;88.90;;;;;;4992809;28;20500;-72
2022/02/24 01:12:34;;;;;;;2.25;0.30;;;5.20;88.90;;;;;;4992793;28;20054;-72
2022/02/24 01:15:06;;;;;;;0.95;0.20;;;5.10;88.90;;;;;;4994449;28;20468;-72
2022/02/24 01:17:39;;;;;;;0.82;0.20;;;5.10;88.90;;;;;;4994057;28;20057;-72
2022/02/24 01:20:08;;;;;;;4.00;0.38;;;5.10;88.90;;;;;;4992867;28;20054;-72
2022/02/24 01:22:36;;;;;;;3.25;0.40;;;5.00;88.90;;;;;;4992517;28;20520;-72
2022/02/24 01:25:04;;;;;;;0.82;0.30;;;5.10;88.80;;;;;;4993808;28;20057;-72
2022/02/24 01:27:32;;;;;;;1.52;0.28;;;5.00;88.80;;;;;;4990615;28;20404;-72
2022/02/24 01:30:00;;;;;;;4.18;0.40;;;5.00;88.80;;;;;;4993504;28;20050;-72
2022/02/24 01:32:28;;;;;;;0.95;0.30;;;5.00;88.80;;;;;;4992942;28;20407;-72
2022/02/24 01:34:59;;;;;;;1.02;0.20;;;5.00;88.80;;;;;;4992691;28;20054;-72
2022/02/24 01:37:27;;;;;;;2.30;0.38;;;5.00;88.90;;;;;;4993879;28;20057;-72
2022/02/24 01:39:55;;;;;;;2.28;0.43;;;5.00;88.90;;;;;;4993260;28;20069;-72
2022/02/24 01:42:23;;;;;;;1.85;0.68;;;4.90;88.90;;;;;;4994265;28;20038;-72
2022/02/24 01:44:50;;;;;;;2.65;0.85;;;4.90;88.90;;;;;;5008725;28;20061;-72
2022/02/24 01:47:19;;;;;;;2.15;0.50;;;4.90;88.90;;;;;;4993535;28;20058;-73
2022/02/24 01:49:47;;;;;;;4.97;0.80;;;4.90;89.00;;;;;;4992593;28;20057;-72
2022/02/24 01:52:14;;;;;;;3.30;0.52;;;4.90;89.00;;;;;;4991359;28;20392;-72
2022/02/24 01:54:42;;;;;;;1.52;0.40;;;4.90;89.00;;;;;;4991604;28;20059;-73
2022/02/24 01:57:11;;;;;;;1.88;0.55;;;4.90;88.90;;;;;;4991522;28;20049;-72
2022/02/24 01:59:38;;;;;;;2.42;0.40;;;5.00;88.90;;;;;;4991690;28;20369;-73
2022/02/24 02:02:06;;;;;;;2.08;0.60;;;4.90;88.90;;;;;;4991115;28;20054;-72
2022/02/24 02:04:36;;;;;;;5.35;0.50;;;5.00;88.70;;;;;;4992106;28;20404;-72
2022/02/24 02:07:04;;;;;;;3.13;0.60;;;5.00;88.50;;;;;;4993118;28;20069;-72
2022/02/24 02:09:34;;;;;;;4.88;0.80;;;5.00;88.30;;;;;;4993037;28;20042;-73
2022/02/24 02:12:03;;;;;;;2.90;0.50;;;5.00;87.80;;;;;;4992130;28;20046;-72
2022/02/24 02:14:31;;;;;;;7.05;0.57;;;5.00;87.50;;;;;;4993057;28;20495;-73
2022/02/24 02:16:59;;;;;;;5.57;0.75;;;5.00;86.50;;;;;;4993035;28;20125;-72
2022/02/24 02:19:31;;;;;;;3.15;0.30;;;5.00;85.60;;;;;;4992915;28;20050;-72
2022/02/24 02:21:58;;;;;;;4.40;0.65;;;5.10;84.50;;;;;;4993001;28;20051;-72
2022/02/24 02:24:27;;;;;;;4.47;0.75;;;5.10;83.50;;;;;;4993033;28;20535;-72
2022/02/24 02:26:57;;;;;;;5.38;0.82;;;5.10;83.20;;;;;;4993059;28;20049;-72
2022/02/24 02:29:24;;;;;;;5.20;1.10;;;5.00;83.40;;;;;;4991082;28;20046;-72
2022/02/24 02:31:54;;;;;;;5.85;0.55;;;5.00;83.50;;;;;;4991657;28;20043;-73
2022/02/24 02:34:22;;;;;;;11.80;0.85;;;5.00;83.30;;;;;;4992876;28;20058;-72
2022/02/24 02:36:50;;;;;;;8.45;0.90;;;5.00;83.50;;;;;;4992953;28;20050;-73
2022/02/24 02:39:18;;;;;;;6.30;0.75;;;5.00;83.70;;;;;;4983621;28;20058;-72
2022/02/24 02:41:47;;;;;;;6.13;0.63;;;5.00;83.70;;;;;;4973555;28;20077;-73
2022/02/24 02:44:15;;;;;;;8.07;0.98;;;5.00;83.80;;;;;;4976957;28;20073;-72
2022/02/24 02:46:44;;;;;;;4.13;0.60;;;5.00;84.10;;;;;;4977486;28;20050;-73
2022/02/24 02:49:12;;;;;;;6.50;0.70;;;4.90;84.30;;;;;;4976048;28;20046;-72
2022/02/24 02:51:40;;;;;;;5.57;0.60;;;5.00;84.40;;;;;;4977877;28;20069;-72
2022/02/24 02:54:08;;;;;;;3.20;0.35;;;5.00;84.60;;;;;;4976101;28;20050;-73
2022/02/24 02:56:35;;;;;;;3.85;0.40;;;5.00;84.50;;;;;;4977366;28;20061;-72
2022/02/24 02:59:03;;;;;;;3.15;0.55;;;5.00;84.40;;;;;;4975854;28;20050;-73
2022/02/24 03:01:30;;;;;;;4.78;0.50;;;5.00;82.70;;;;;;4976962;28;20054;-73
2022/02/24 03:03:59;;;;;;;3.30;0.60;;;5.10;81.00;;;;;;4977227;28;20402;-72
2022/02/24 03:06:26;;;;;;;2.53;0.40;;;5.00;80.60;;;;;;4977621;28;20050;-72
2022/02/24 03:08:54;;;;;;;6.35;0.65;;;5.00;80.10;;;;;;4976767;28;20106;-72
2022/02/24 03:11:21;;;;;;;2.38;0.57;;;5.00;80.40;;;;;;4991924;28;20054;-73
2022/02/24 03:13:49;;;;;;;5.53;0.95;;;5.00;80.50;;;;;;4976764;28;20051;-73
2022/02/24 03:16:17;;;;;;;2.85;0.45;;;5.00;80.90;;;;;;4991839;28;20405;-72
2022/02/24 03:18:44;;;;;;;6.10;0.60;;;5.00;81.10;;;;;;4974968;28;20054;-72
2022/02/24 03:21:12;;;;;;;1.85;0.30;;;4.90;81.20;;;;;;4975553;28;20058;-72
2022/02/24 03:23:41;;;;;;;2.58;0.40;;;4.90;81.50;;;;;;4976925;28;20081;-72
2022/02/24 03:26:08;;;;;;;4.05;0.47;;;4.80;81.70;;;;;;4978442;28;20065;-72
2022/02/24 03:28:36;;;;;;;0.63;0.28;;;4.90;81.40;;;;;;4991968;28;20418;-72
2022/02/24 03:31:05;;;;;;;3.17;0.65;;;4.90;81.30;;;;;;4991413;28;20050;-72
2022/02/24 03:33:33;;;;;;;7.25;0.40;;;4.90;81.00;;;;;;4977008;28;20066;-73
2022/02/24 03:36:00;;;;;;;4.80;0.68;;;4.90;81.10;;;;;;4975554;28;20058;-73
2022/02/24 03:38:28;;;;;;;5.60;0.75;;;4.90;80.80;;;;;;4974071;28;20050;-73
2022/02/24 03:40:57;;;;;;;1.08;0.40;;;4.90;80.70;;;;;;4973085;28;20050;-73
2022/02/24 03:43:24;;;;;;;3.83;0.40;;;4.90;80.90;;;;;;4989295;28;20058;-72
2022/02/24 03:45:52;;;;;;;4.20;0.80;;;4.80;81.00;;;;;;4974859;28;20047;-72
2022/02/24 03:48:20;;;;;;;2.63;0.60;;;4.80;80.70;;;;;;4974744;28;20054;-72
2022/02/24 03:50:49;;;;;;;3.70;0.50;;;4.80;81.00;;;;;;4974260;28;20051;-72
2022/02/24 03:53:16;;;;;;;4.93;0.35;;;4.80;81.20;;;;;;4975185;28;20051;-72
2022/02/24 03:55:50;;;;;;;3.10;0.80;;;4.70;81.30;;;;;;4975366;28;20058;-72
2022/02/24 03:58:17;;;;;;;2.13;0.40;;;4.70;81.50;;;;;;4974738;28;20057;-72
2022/02/24 04:00:45;;;;;;;3.38;0.60;;;4.70;81.50;;;;;;4958996;28;20420;-72
2022/02/24 04:03:13;;;;;;;3.22;0.40;;;4.70;81.20;;;;;;4990463;28;20489;-73
2022/02/24 04:05:41;;;;;;;2.75;0.50;;;4.70;81.00;;;;;;4976082;28;20066;-73
2022/02/24 04:08:08;;;;;;;2.80;0.80;;;4.80;80.50;;;;;;4975951;28;20043;-72
2022/02/24 04:10:36;;;;;;;2.35;0.50;;;4.80;80.80;;;;;;4975790;28;20047;-72
2022/02/24 04:13:06;;;;;;;4.50;0.60;;;4.80;81.00;;;;;;4974853;28;20050;-72
2022/02/24 04:15:36;;;;;;;3.15;0.55;;;4.80;81.50;;;;;;4974546;28;20058;-72
2022/02/24 04:18:07;;;;;;;3.55;0.50;;;4.80;81.60;;;;;;4974664;28;20046;-72
2022/02/24 04:20:35;;;;;;;2.17;0.35;;;4.80;81.80;;;;;;4975521;28;20051;-73
2022/02/24 04:23:03;;;;;;;6.05;0.80;;;4.70;81.90;;;;;;4990540;28;20043;-72
2022/02/24 04:25:31;;;;;;;2.58;0.50;;;4.80;82.00;;;;;;4958434;28;20059;-72
2022/02/24 04:27:58;;;;;;;5.45;0.60;;;4.70;82.20;;;;;;4975451;28;20043;-72
2022/02/24 04:30:26;;;;;;;2.47;0.57;;;4.70;82.30;;;;;;4975333;28;20051;-72
2022/02/24 04:32:54;;;;;;;4.03;0.60;;;4.70;82.60;;;;;;4975356;28;20047;-72
2022/02/24 04:35:24;;;;;;;4.35;0.63;;;4.70;82.70;;;;;;4975044;28;20047;-72
2022/02/24 04:37:52;;;;;;;3.35;0.63;;;4.70;83.00;;;;;;4975251;28;20055;-72
2022/02/24 04:40:20;;;;;;;2.58;0.60;;;4.80;83.40;;;;;;4975218;28;20509;-73
2022/02/24 04:42:48;;;;;;;3.95;0.50;;;4.70;83.50;;;;;;4990010;28;20059;-73
2022/02/24 04:45:16;;;;;;;5.80;0.60;;;4.80;83.50;;;;;;4973985;28;20073;-73
2022/02/24 04:47:44;;;;;;;5.57;0.70;;;4.70;83.50;;;;;;4975390;28;20058;-72
2022/02/24 04:50:12;;;;;;;3.65;0.55;;;4.70;83.60;;;;;;4975052;28;20057;-72
2022/02/24 04:52:41;;;;;;;7.32;0.77;;;4.70;83.60;;;;;;4973503;28;20046;-72
2022/02/24 04:55:09;;;;;;;4.20;0.60;;;4.60;83.80;;;;;;4992988;28;20061;-73
2022/02/24 04:57:37;;;;;;;4.38;0.32;;;4.60;83.90;;;;;;4993000;28;20412;-73
2022/02/24 05:00:06;;;;;;;5.80;0.57;;;4.50;82.80;;;;;;4994438;28;20061;-73
2022/02/24 05:02:34;;;;;;;3.45;0.40;;;4.60;82.20;;;;;;4994484;28;20515;-72
2022/02/24 05:05:03;;;;;;;3.78;0.65;;;4.50;82.40;;;;;;4992684;28;20058;-73
2022/02/24 05:07:30;;;;;;;4.93;0.55;;;4.50;82.80;;;;;;4993109;28;20077;-72
2022/02/24 05:09:59;;;;;;;0.75;0.20;;;4.30;83.20;;;;;;4991925;28;20065;-72
2022/02/24 05:12:28;;;;;;;2.75;0.50;;;4.30;83.60;;;;;;4992104;28;20057;-72
2022/02/24 05:14:56;;;;;;;2.85;0.82;;;4.30;83.50;;;;;;4991029;28;20057;-72
2022/02/24 05:17:23;;;;;;;3.58;0.68;;;4.20;83.50;;;;;;4991045;28;20598;-71
2022/02/24 05:19:51;;;;;;;1.80;0.50;;;4.20;83.80;;;;;;4992004;28;20061;-71
2022/02/24 05:22:19;;;;;;;2.58;0.43;;;4.10;84.20;;;;;;4991973;28;20046;-71
2022/02/24 05:24:46;;;;;;;3.28;0.70;;;4.00;84.30;;;;;;4990632;28;20062;-71
2022/02/24 05:27:15;;;;;;;6.32;0.82;;;4.00;84.40;;;;;;4993752;28;20392;-71
2022/02/24 05:29:42;;;;;;;6.97;0.90;;;4.00;84.60;;;;;;4993799;28;20050;-71
2022/02/24 05:32:10;;;;;;;4.35;0.90;;;3.90;84.60;;;;;;4993706;28;20074;-71
2022/02/24 05:34:38;;;;;;;6.03;0.75;;;3.90;84.70;;;;;;5008601;28;20065;-71
2022/02/24 05:37:05;;;;;;;7.88;1.10;;;3.80;84.80;;;;;;4992485;28;20073;-71
2022/02/24 05:39:33;;;;;;;6.30;0.80;;;3.80;85.00;;;;;;5008307;28;20050;-70
2022/02/24 05:42:01;;;;;;;3.58;0.80;;;3.80;85.10;;;;;;4993510;28;20047;-71
2022/02/24 05:44:28;;;;;;;3.15;0.60;;;3.80;85.20;;;;;;4993648;28;20399;-71
2022/02/24 05:46:56;;;;;;;4.05;0.63;;;3.70;85.30;;;;;;4993946;28;20051;-70
2022/02/24 05:49:24;;;;;;;3.72;0.82;;;3.70;85.50;;;;;;4993876;28;20046;-71
2022/02/24 05:51:51;;;;;;;4.28;0.63;;;3.70;85.70;;;;;;4993275;28;20355;-70
2022/02/24 05:54:19;;;;;;;5.18;0.68;;;3.60;85.80;;;;;;4993394;28;20488;-71
2022/02/24 05:56:47;;;;;;;3.80;0.60;;;3.60;85.90;;;;;;4993542;28;20054;-70
2022/02/24 05:59:15;;;;;;;2.25;0.43;;;3.50;85.80;;;;;;4993174;28;20065;-70
2022/02/24 06:01:42;;;;;;;4.20;0.63;;;3.50;86.00;;;;;;4993269;28;20050;-70
2022/02/24 06:04:10;;;;;;;3.42;0.82;;;3.40;86.00;;;;;;4992000;28;20054;-71
2022/02/24 06:06:37;;;;;;;6.55;0.75;;;3.40;86.10;;;;;;4993127;28;20050;-71
2022/02/24 06:09:05;;;;;;;3.80;0.50;;;3.40;86.10;;;;;;4993001;28;20050;-71
2022/02/24 06:11:34;;;;;;;1.92;0.50;;;3.30;86.20;;;;;;4991899;28;20054;-71
2022/02/24 06:14:02;;;;;;;3.63;0.70;;;3.30;86.30;;;;;;4991778;28;20400;-71
2022/02/24 06:16:30;;;;;;;5.70;0.65;;;3.30;86.50;;;;;;4992977;28;20201;-71
2022/02/24 06:18:57;;;;;;;6.10;0.80;;;3.30;86.60;;;;;;4991426;28;20053;-71
2022/02/24 06:21:25;;;;;;;6.47;0.70;;;3.30;86.80;;;;;;4993078;28;20054;-71
2022/02/24 06:23:53;;;;;;;4.88;0.57;;;3.30;87.00;;;;;;4993361;28;20062;-70
2022/02/24 06:26:21;;;;;;;3.05;0.52;;;3.30;87.10;;;;;;4993006;28;20061;-72
2022/02/24 06:28:49;;;;;;;1.63;0.43;;;3.20;87.40;;;;;;4992937;28;20054;-70
2022/02/24 06:31:17;;;;;;;3.67;0.68;;;3.20;87.50;;;;;;4991978;28;20057;-71
2022/02/24 06:33:44;;;;;;;3.33;0.50;;;3.20;87.70;;;;;;4991141;28;20061;-70
2022/02/24 06:36:14;;;;;;;1.98;0.40;;;3.20;87.80;;;;;;4992725;28;20050;-70
2022/02/24 06:38:41;;;;;;;1.95;0.43;;;3.20;88.00;;;;;;4992700;28;20046;-70
2022/02/24 06:41:09;;;;;;;3.35;0.52;;;3.10;87.90;;;;;;4992899;28;20420;-70
2022/02/24 06:43:37;;;;;;;3.45;0.57;;;3.10;88.00;;;;;;4992815;28;20061;-71
2022/02/24 06:46:04;;;;;;;2.63;0.40;;;3.10;88.10;;;;;;4992643;28;20054;-71
2022/02/24 06:48:32;;;;;;;3.17;0.65;;;3.10;88.20;;;;;;4990368;28;20427;-71
2022/02/24 06:51:01;;;;;;;3.90;0.63;;;3.00;88.30;;;;;;4989432;28;20042;-71
2022/02/24 06:53:34;;;;;;;1.17;0.40;;;3.00;88.40;;;;;;4990539;28;20050;-71
2022/02/24 06:56:01;;;;;;;1.67;0.40;;;3.00;88.50;;;;;;4989430;28;20496;-71
2022/02/24 06:58:29;;;;;;;1.40;0.30;;;3.00;88.50;;;;;;4990758;28;20282;-71
2022/02/24 07:00:58;;;;;;;1.02;0.40;;;3.10;88.40;;;;;;4990893;28;20069;-71
2022/02/24 07:03:26;;;;;;;0.82;0.40;;;3.10;88.30;;;;;;4990311;28;20050;-71
2022/02/24 07:05:55;;;;;;;3.58;0.50;;;3.10;88.30;;;;;;4993208;28;20146;-71
2022/02/24 07:08:22;;;;;;;1.92;0.40;;;3.10;88.30;;;;;;4992307;28;20050;-71
2022/02/24 07:10:50;;;;;;;1.75;0.40;;;3.10;88.30;;;;;;4991230;28;20053;-73
2022/02/24 07:13:18;;;;;;;4.85;0.30;;;3.00;88.30;;;;;;4992543;28;20046;-71
2022/02/24 07:15:45;;;;;;;1.83;0.30;;;3.00;88.20;;;;;;4993533;28;20047;-71
2022/02/24 07:18:13;;;;;;;4.38;0.35;;;3.00;88.20;;;;;;5007579;28;20054;-71
2022/02/24 07:20:41;;;;;;;3.75;0.40;;;2.90;88.30;;;;;;4992432;28;20073;-72
2022/02/24 07:23:08;;;;;;;1.55;0.30;;;2.90;88.30;;;;;;4992539;28;20062;-72
2022/02/24 07:25:36;;;;;;;1.35;0.30;;;2.80;88.30;;;;;;5007257;28;20042;-72
2022/02/24 07:28:04;;;;;;;2.85;0.20;;;2.80;88.30;;;;;;4992763;28;20423;-72
2022/02/24 07:30:39;;;;;;;2.55;0.30;;;2.80;88.50;;;;;;4994956;28;20062;-73
2022/02/24 07:33:07;;;;;;;9.48;0.70;;;2.90;88.40;;;;;;4996067;28;20058;-72
2022/02/24 07:35:35;;;;;;;4.82;0.50;;;2.90;88.40;;;;;;4995855;28;20415;-71
2022/02/24 07:38:03;;;;;;;3.72;0.88;;;2.90;88.40;;;;;;4995942;28;20546;-72
2022/02/24 07:40:37;;;;;;;3.20;0.30;;;2.90;88.40;;;;;;4996837;28;20488;-71
2022/02/24 07:43:05;;;;;;;2.15;0.60;;;2.90;88.20;;;;;;4995807;28;20142;-71
2022/02/24 07:45:32;;;;;;;4.15;0.40;;;2.90;87.80;;;;;;4978401;28;20050;-71
2022/02/24 07:48:00;;;;;;;1.98;0.60;;;2.90;87.70;;;;;;4987193;28;20534;-71
2022/02/24 07:50:28;;;;;;;1.50;0.40;;;2.90;87.20;;;;;;4985582;28;20057;-70
2022/02/24 07:52:56;;;;;;;3.20;0.65;;;2.90;87.00;;;;;;4982338;28;20046;-70
2022/02/24 07:55:23;;;;;;;2.47;0.40;;;2.80;87.30;;;;;;4984382;28;20046;-70
2022/02/24 07:57:51;;;;;;;3.90;0.73;;;2.70;87.80;;;;;;4995685;28;20061;-71
2022/02/24 08:00:19;;;;;;;3.83;0.63;;;2.60;88.20;;;;;;4994272;28;20046;-69
2022/02/24 08:02:51;;;;;;;1.65;0.35;;;2.60;88.50;;;;;;4995593;28;20046;-70
2022/02/24 08:05:19;;;;;;;1.65;0.50;;;2.50;88.60;;;;;;4994014;28;20054;-70
2022/02/24 08:07:46;;;;;;;0.77;0.38;;;2.50;88.60;;;;;;4995233;28;20043;-70
2022/02/24 08:10:14;;;;;;;3.45;0.50;;;2.50;88.80;;;;;;5026901;28;20061;-70
2022/02/24 08:12:42;;;;;;;3.67;0.50;;;2.50;88.80;;;;;;4995206;28;20053;-71
2022/02/24 08:15:12;;;;;;;3.05;0.50;;;2.40;88.80;;;;;;5027296;28;20046;-71
2022/02/24 08:17:40;;;;;;;2.15;0.75;;;2.30;88.80;;;;;;4993879;28;20050;-72
2022/02/24 08:20:09;;;;;;;3.42;0.50;;;2.30;88.90;;;;;;4994814;28;20476;-72
2022/02/24 08:22:39;;;;;;;0.68;0.30;;;2.30;89.00;;;;;;4994026;28;20476;-72
2022/02/24 08:25:09;;;;;;;2.50;0.60;;;2.30;89.30;;;;;;4994953;28;20050;-71
2022/02/24 08:27:37;;;;;;;0.98;0.40;;;2.30;89.40;;;;;;4993767;28;20503;-71
2022/02/24 08:30:10;;;;;;;0.82;0.40;;;2.20;89.40;;;;;;4994812;28;20046;-71
2022/02/24 08:32:40;;;;;;;8.20;0.68;;;2.20;89.60;;;;;;4995078;28;20492;-70
2022/02/24 08:35:09;;;;;;;3.35;0.38;;;2.20;89.70;;;;;;4994908;28;20043;-71
2022/02/24 08:37:37;;;;;;;2.95;0.40;;;2.10;89.80;;;;;;4977393;28;20408;-71
2022/02/24 08:40:06;;;;;;;0.63;0.38;;;2.10;90.00;;;;;;4992864;28;20062;-70
2022/02/24 08:42:34;;;;;;;0.93;0.13;;;2.10;90.10;;;;;;4994891;28;20062;-69
2022/02/24 08:45:03;;;;;;;3.00;0.28;;;2.10;90.20;;;;;;4994718;28;20488;-69
2022/02/24 08:47:34;;;;;;;0.93;0.20;;;2.10;90.10;;;;;;4994751;28;20526;-70
2022/02/24 08:50:03;;;;;;;1.10;0.50;;;2.10;90.10;;;;;;4994207;28;20050;-70
2022/02/24 08:52:51;;;;;;;1.83;0.28;;;2.10;90.00;;;;;;4979784;28;20051;-70
2022/02/24 08:55:19;;;;;;;3.40;0.40;;;2.10;90.20;;;;;;4994415;28;20042;-69
2022/02/24 08:57:47;;;;;;;3.33;0.35;;;2.10;90.20;;;;;;4994358;28;20054;-70
2022/02/24 09:00:15;;;;;;;1.13;0.28;;;2.20;90.20;;;;;;4994363;28;20046;-69
2022/02/24 09:02:43;;;;;;;1.48;0.17;;;2.20;90.10;;;;;;4994429;28;20496;-69
2022/02/24 09:05:11;;;;;;;1.25;0.40;;;2.20;90.00;;;;;;5025673;28;20069;-69
2022/02/24 09:07:38;;;;;;;1.55;0.38;;;2.30;89.90;;;;;;4994471;28;20050;-70
2022/02/24 09:10:27;;;;;;;3.25;0.45;;;2.30;89.90;;;;;;4993056;28;20053;-70
2022/02/24 09:12:55;;;;;;;0.75;0.20;;;2.40;89.80;;;;;;4994044;28;20054;-70
2022/02/24 09:15:22;;;;;;;2.40;0.63;;;2.50;89.60;;;;;;4994076;28;20057;-70
2022/02/24 09:17:50;;;;;;;5.88;0.57;;;2.50;89.20;;;;;;4994046;28;20381;-70
2022/02/24 09:20:18;;;;;;;0.68;0.20;;;2.60;89.00;;;;;;4991354;28;20049;-70
2022/02/24 09:22:46;;;;;;;3.85;0.70;;;2.70;88.60;;;;;;4989574;28;20042;-70
2022/02/24 09:25:14;;;;;;;5.85;0.75;;;2.80;88.20;;;;;;4984501;28;20046;-70
2022/02/24 09:27:41;;;;;;;5.05;0.52;;;2.90;88.10;;;;;;4982867;28;20424;-70
2022/02/24 09:30:09;;;;;;;2.35;0.60;;;3.10;87.60;;;;;;4983855;28;20042;-70
2022/02/24 09:32:39;;;;;;;2.35;0.40;;;3.30;87.60;;;;;;4983273;28;20046;-71
2022/02/24 09:35:09;;;;;;;1.17;0.32;;;3.40;87.30;;;;;;4983573;28;20046;-70
2022/02/24 09:37:40;;;;;;;4.70;0.60;;;3.70;86.80;;;;;;4982709;28;20050;-71
2022/02/24 09:40:09;;;;;;;2.38;0.30;;;3.80;86.20;;;;;;4983828;28;20047;-71
2022/02/24 09:42:57;;;;;;;5.70;0.80;;;3.80;85.10;;;;;;4984446;28;20049;-70
2022/02/24 09:45:25;;;;;;;3.15;0.63;;;3.80;84.20;;;;;;4965602;28;20074;-71
2022/02/24 09:48:02;;;;;;;5.30;0.60;;;3.80;84.50;;;;;;4981184;28;20069;-71
2022/02/24 09:50:31;;;;;;;3.90;0.30;;;3.80;84.60;;;;;;4983259;28;20058;-70
2022/02/24 09:52:59;;;;;;;2.85;0.77;;;3.90;83.80;;;;;;4983484;28;20042;-70
2022/02/24 09:55:26;;;;;;;6.35;0.98;;;4.00;83.10;;;;;;4983089;28;20050;-71
2022/02/24 09:57:54;;;;;;;4.63;0.38;;;4.00;82.80;;;;;;4982432;28;20451;-70
2022/02/24 10:00:22;;;;;;;1.63;0.40;;;4.20;81.30;;;;;;4984109;28;20428;-70
2022/02/24 10:02:49;;;;;;;3.30;0.70;;;4.10;80.20;;;;;;4983177;28;20499;-70
2022/02/24 10:05:17;;;;;;;1.55;0.40;;;4.10;79.40;;;;;;4979498;28;20053;-70
2022/02/24 10:07:49;;;;;;;0.90;0.32;;;4.20;79.00;;;;;;4973818;28;20054;-70
2022/02/24 10:10:24;;;;;;;1.40;0.50;;;4.20;78.40;;;;;;4973998;28;20519;-70
2022/02/24 10:13:09;;;;;;;4.75;0.55;;;4.30;77.80;;;;;;4974410;28;20055;-70
2022/02/24 10:15:41;;;;;;;5.45;0.32;;;4.40;77.80;;;;;;4973831;28;20047;-71
2022/02/24 10:18:10;;;;;;;2.53;0.30;;;4.40;78.20;;;;;;4972330;28;20051;-70
2022/02/24 10:21:08;;;;;;;4.03;0.70;;;4.60;76.70;;;;;;4973730;28;20046;-71
2022/02/24 10:23:40;;;;;;;2.78;0.32;;;4.60;76.70;;;;;;4972501;28;20046;-71
2022/02/24 10:26:12;;;;;;;2.40;0.32;;;4.60;76.00;;;;;;4973545;28;20489;-71
2022/02/24 10:28:50;;;;;;;6.97;0.45;;;4.70;76.50;;;;;;4973580;28;20047;-71
2022/02/24 10:31:20;;;;;;;4.45;0.50;;;4.90;74.80;;;;;;4972317;28;20055;-71
2022/02/24 10:34:12;;;;;;;3.42;0.25;;;4.90;75.50;;;;;;4974094;28;20066;-70
2022/02/24 10:36:40;;;;;;;6.57;1.00;;;5.10;75.30;;;;;;4973709;28;20100;-71
2022/02/24 10:39:13;;;;;;;8.38;0.70;;;5.20;72.90;;;;;;4973145;28;20053;-71
2022/02/24 10:41:42;;;;;;;6.00;1.15;;;5.30;74.10;;;;;;4973434;28;20047;-71
2022/02/24 10:44:17;;;;;;;4.25;0.47;;;5.30;73.30;;;;;;4973295;28;20098;-71
2022/02/24 10:46:52;;;;;;;4.75;0.70;;;5.30;72.80;;;;;;4973479;28;20047;-71
2022/02/24 10:49:31;;;;;;;2.30;0.40;;;5.40;71.50;;;;;;4973324;28;20489;-72
2022/02/24 10:52:12;;;;;;;5.05;0.82;;;5.40;70.90;;;;;;4973191;28;20058;-71
2022/02/24 10:54:42;;;;;;;4.70;0.88;;;5.50;71.30;;;;;;4973231;28;20055;-71
2022/02/24 10:57:21;;;;;;;4.05;0.57;;;5.40;70.60;;;;;;4973748;28;20062;-71
2022/02/24 10:59:49;;;;;;;4.95;0.60;;;5.30;71.50;;;;;;4973075;28;20047;-71
2022/02/24 11:02:21;;;;;;;2.40;0.85;;;5.30;71.90;;;;;;4973303;28;20412;-71
2022/02/24 11:04:50;;;;;;;4.00;0.85;;;5.30;71.30;;;;;;4976168;28;20050;-71
2022/02/24 11:07:18;;;;;;;4.53;0.50;;;5.60;71.30;;;;;;4977147;28;20043;-72
2022/02/24 11:09:50;;;;;;;5.80;0.65;;;5.90;70.90;;;;;;4976970;28;20054;-71
2022/02/24 11:12:23;;;;;;;1.77;0.25;;;6.00;68.70;;;;;;4977478;28;20050;-71
2022/02/24 11:14:51;;;;;;;4.07;0.52;;;5.90;67.90;;;;;;4977693;28;20050;-71
2022/02/24 11:17:21;;;;;;;1.25;0.50;;;5.80;67.40;;;;;;4977059;28;20050;-71
2022/02/24 11:19:49;;;;;;;3.13;0.38;;;5.90;67.70;;;;;;4975496;28;20051;-71
2022/02/24 11:22:17;;;;;;;0.85;0.13;;;5.90;68.30;;;;;;4975344;28;20054;-71
2022/02/24 11:24:46;;;;;;;2.92;0.50;;;5.90;66.60;;;;;;4975594;28;20504;-72
2022/02/24 11:27:23;;;;;;;0.90;0.30;;;5.80;67.20;;;;;;4976592;28;20045;-71
2022/02/24 11:30:05;;;;;;;6.43;0.80;;;5.80;66.80;;;;;;4975344;28;20051;-71
2022/02/24 11:32:33;;;;;;;3.15;0.70;;;5.70;67.30;;;;;;4979910;28;20058;-72
2022/02/24 11:35:09;;;;;;;3.95;0.43;;;5.80;67.50;;;;;;4975355;28;20043;-72
2022/02/24 11:37:42;;;;;;;1.80;0.45;;;6.00;68.40;;;;;;4959417;28;20051;-71
2022/02/24 11:40:32;;;;;;;0.17;0.08;;;6.20;67.50;;;;;;4995539;28;20412;-72
2022/02/24 11:43:05;;;;;;;2.20;0.32;;;6.20;65.10;;;;;;4995698;28;20043;-71
2022/02/24 11:45:39;;;;;;;0.60;0.20;;;6.00;66.20;;;;;;4995733;28;20051;-71
2022/02/24 11:48:19;;;;;;;1.25;0.40;;;5.80;66.90;;;;;;4996201;28;20050;-70
2022/02/24 11:51:18;;;;;;;0.82;0.15;;;5.50;67.40;;;;;;4994847;28;20050;-70
2022/02/24 11:53:53;;;;;;;1.27;0.20;;;5.20;68.00;;;;;;4991989;28;20061;-70
2022/02/24 11:56:21;;;;;;;1.40;0.30;;;5.00;69.60;;;;;;4995489;28;20043;-70
2022/02/24 11:58:51;;;;;;;0.60;0.28;;;5.00;70.50;;;;;;4995456;28;20050;-71
2022/02/24 12:01:34;;;;;;;0.47;0.20;;;4.80;70.50;;;;;;4995591;28;20400;-71
2022/02/24 12:04:27;;;;;;;1.15;0.20;;;4.80;70.80;;;;;;4995727;28;20053;-71
2022/02/24 12:07:12;;;;;;;0.83;0.27;;;4.60;71.20;;;;;;4995367;28;20512;-71
2022/02/24 12:09:40;;;;;;;1.00;0.20;;;4.70;72.10;;;;;;4995392;28;20061;-71
2022/02/24 12:12:10;;;;;;;2.30;0.30;;;5.00;72.60;;;;;;4994273;28;20408;-71
2022/02/24 12:14:40;;;;;;;1.40;0.20;;;5.70;71.70;;;;;;4993386;28;20416;-71
2022/02/24 12:17:15;;;;;;;1.33;0.30;;;6.20;69.30;;;;;;4995286;28;20046;-72
2022/02/24 12:19:45;;;;;;;0.70;0.10;;;6.30;67.80;;;;;;4995157;28;20066;-71
2022/02/24 12:22:37;;;;;;;0.73;0.10;;;6.00;66.90;;;;;;4995214;28;20053;-71
2022/02/24 12:25:17;;;;;;;0.40;0.20;;;5.50;69.10;;;;;;4994970;28;20046;-70
2022/02/24 12:27:56;;;;;;;0.13;0.08;;;5.00;69.50;;;;;;4993819;28;20050;-69
2022/02/24 12:30:33;;;;;;;1.30;0.10;;;4.50;70.70;;;;;;4995077;28;20043;-69
2022/02/24 12:33:04;;;;;;;0.80;0.32;;;4.30;73.30;;;;;;4994841;28;20046;-71
2022/02/24 12:35:38;;;;;;;2.47;0.20;;;4.10;75.00;;;;;;4994846;28;20049;-70
2022/02/24 12:38:09;;;;;;;2.47;0.32;;;4.00;75.70;;;;;;4993285;28;20049;-70
2022/02/24 12:40:42;;;;;;;1.30;0.40;;;4.00;75.30;;;;;;4994739;28;20076;-71
2022/02/24 12:43:13;;;;;;;0.50;0.20;;;3.90;75.00;;;;;;4993500;28;20043;-71
2022/02/24 12:45:45;;;;;;;1.40;0.23;;;3.80;75.50;;;;;;4994587;28;20047;-71
2022/02/24 12:48:16;;;;;;;5.63;0.47;;;3.80;75.20;;;;;;4992932;28;20392;-71
2022/02/24 12:50:47;;;;;;;1.23;0.30;;;3.70;75.00;;;;;;4988609;28;20050;-71
2022/02/24 12:53:20;;;;;;;1.60;0.40;;;3.50;75.20;;;;;;4993738;28;20046;-71
2022/02/24 12:55:51;;;;;;;0.63;0.10;;;3.50;76.10;;;;;;4993247;28;20050;-71
2022/02/24 12:58:20;;;;;;;2.65;0.40;;;3.90;76.90;;;;;;4994578;28;20054;-72
2022/02/24 13:00:54;;;;;;;1.85;0.45;;;4.70;75.40;;;;;;4995139;28;20050;-72
2022/02/24 13:03:27;;;;;;;0.82;0.30;;;5.60;72.90;;;;;;4994407;28;20046;-71
2022/02/24 13:05:59;;;;;;;0.57;0.30;;;6.40;67.90;;;;;;4994696;28;20053;-71
2022/02/24 13:11:18;;;;;;;2.78;0.22;;;7.50;65.60;;;;;;4994370;28;20062;-71
2022/02/24 13:13:49;;;;;;;1.30;0.28;;;8.10;62.50;;;;;;4994215;28;20519;-71